sensor_id;sensor_type;location;lat;lon;timestamp;P1;durP1;ratioP1;P2;durP2;ratioP2
56599;SDS011;51832;48.152;11.530;2023-06-22T00:01:10;4.13;;;2.95;;
56599;SDS011;51832;48.152;11.530;2023-06-22T00:06:10;5.63;;;3.35;;
56599;SDS011;51832;48.152;11.530;2023-06-22T00:11:11;4.75;;;3.28;;
56599;SDS011;51832;48.152;11.530;2023-06-22T00:16:11;6.00;;;3.25;;
56599;SDS011;51832;48.152;11.530;2023-06-22T00:21:12;5.87;;;3.30;;
56599;SDS011;51832;48.152;11.530;2023-06-22T00:26:13;4.15;;;3.28;;
56599;SDS011;51832;48.152;11.530;2023-06-22T00:31:13;6.07;;;3.53;;
56599;SDS011;51832;48.152;11.530;2023-06-22T00:36:14;6.28;;;3.67;;
56599;SDS011;51832;48.152;11.530;2023-06-22T00:41:17;5.20;;;3.10;;
56599;SDS011;51832;48.152;11.530;2023-06-22T00:46:18;6.88;;;3.35;;
56599;SDS011;51832;48.152;11.530;2023-06-22T00:51:18;5.33;;;3.07;;
56599;SDS011;51832;48.152;11.530;2023-06-22T00:56:24;6.75;;;3.38;;
56599;SDS011;51832;48.152;11.530;2023-06-22T01:01:24;5.03;;;3.15;;
56599;SDS011;51832;48.152;11.530;2023-06-22T01:06:26;6.37;;;3.47;;
56599;SDS011;51832;48.152;11.530;2023-06-22T01:16:42;6.63;;;3.15;;
56599;SDS011;51832;48.152;11.530;2023-06-22T01:21:44;6.32;;;3.47;;
56599;SDS011;51832;48.152;11.530;2023-06-22T01:31:53;6.72;;;3.35;;
56599;SDS011;51832;48.152;11.530;2023-06-22T01:36:56;7.05;;;3.50;;
56599;SDS011;51832;48.152;11.530;2023-06-22T01:41:58;5.40;;;3.42;;
56599;SDS011;51832;48.152;11.530;2023-06-22T01:46:59;9.60;;;3.37;;
56599;SDS011;51832;48.152;11.530;2023-06-22T01:52:00;7.65;;;3.35;;
56599;SDS011;51832;48.152;11.530;2023-06-22T01:57:01;6.10;;;3.80;;
56599;SDS011;51832;48.152;11.530;2023-06-22T02:02:02;4.55;;;3.33;;
56599;SDS011;51832;48.152;11.530;2023-06-22T02:07:09;5.85;;;3.47;;
56599;SDS011;51832;48.152;11.530;2023-06-22T02:12:17;5.22;;;2.95;;
56599;SDS011;51832;48.152;11.530;2023-06-22T02:17:23;6.63;;;3.67;;
56599;SDS011;51832;48.152;11.530;2023-06-22T02:22:24;6.00;;;3.90;;
56599;SDS011;51832;48.152;11.530;2023-06-22T02:27:24;4.30;;;3.10;;
56599;SDS011;51832;48.152;11.530;2023-06-22T02:32:25;8.88;;;4.22;;
56599;SDS011;51832;48.152;11.530;2023-06-22T02:37:25;4.83;;;3.23;;
56599;SDS011;51832;48.152;11.530;2023-06-22T02:42:29;6.78;;;3.58;;
56599;SDS011;51832;48.152;11.530;2023-06-22T02:47:29;5.20;;;3.50;;
56599;SDS011;51832;48.152;11.530;2023-06-22T02:52:30;5.03;;;3.75;;
56599;SDS011;51832;48.152;11.530;2023-06-22T02:57:30;8.67;;;3.40;;
56599;SDS011;51832;48.152;11.530;2023-06-22T03:02:31;6.73;;;3.83;;
56599;SDS011;51832;48.152;11.530;2023-06-22T03:07:31;10.53;;;3.73;;
56599;SDS011;51832;48.152;11.530;2023-06-22T03:12:32;7.55;;;4.25;;
56599;SDS011;51832;48.152;11.530;2023-06-22T03:17:36;6.22;;;3.88;;
56599;SDS011;51832;48.152;11.530;2023-06-22T03:22:39;8.50;;;4.60;;
56599;SDS011;51832;48.152;11.530;2023-06-22T03:27:41;8.30;;;3.83;;
56599;SDS011;51832;48.152;11.530;2023-06-22T03:32:42;5.50;;;3.90;;
56599;SDS011;51832;48.152;11.530;2023-06-22T03:37:43;5.85;;;3.30;;
56599;SDS011;51832;48.152;11.530;2023-06-22T03:42:43;8.98;;;4.20;;
56599;SDS011;51832;48.152;11.530;2023-06-22T03:47:44;7.07;;;4.13;;
56599;SDS011;51832;48.152;11.530;2023-06-22T03:52:44;8.17;;;3.63;;
56599;SDS011;51832;48.152;11.530;2023-06-22T03:57:44;5.80;;;3.23;;
56599;SDS011;51832;48.152;11.530;2023-06-22T04:02:45;6.23;;;3.60;;
56599;SDS011;51832;48.152;11.530;2023-06-22T04:07:45;5.10;;;3.60;;
56599;SDS011;51832;48.152;11.530;2023-06-22T04:12:46;6.47;;;4.00;;
56599;SDS011;51832;48.152;11.530;2023-06-22T04:17:48;4.95;;;3.40;;
56599;SDS011;51832;48.152;11.530;2023-06-22T04:22:48;7.32;;;3.83;;
56599;SDS011;51832;48.152;11.530;2023-06-22T04:27:49;6.57;;;4.38;;
56599;SDS011;51832;48.152;11.530;2023-06-22T04:32:49;6.93;;;3.83;;
56599;SDS011;51832;48.152;11.530;2023-06-22T04:37:57;5.60;;;3.70;;
56599;SDS011;51832;48.152;11.530;2023-06-22T04:42:58;9.50;;;4.20;;
56599;SDS011;51832;48.152;11.530;2023-06-22T04:48:02;5.97;;;4.30;;
56599;SDS011;51832;48.152;11.530;2023-06-22T04:53:02;5.18;;;3.78;;
56599;SDS011;51832;48.152;11.530;2023-06-22T04:58:05;7.50;;;3.90;;
56599;SDS011;51832;48.152;11.530;2023-06-22T05:03:05;7.60;;;4.20;;
56599;SDS011;51832;48.152;11.530;2023-06-22T05:08:06;8.15;;;4.53;;
56599;SDS011;51832;48.152;11.530;2023-06-22T05:13:07;8.73;;;4.28;;
56599;SDS011;51832;48.152;11.530;2023-06-22T05:18:07;10.40;;;4.30;;
56599;SDS011;51832;48.152;11.530;2023-06-22T05:23:08;8.93;;;4.60;;
56599;SDS011;51832;48.152;11.530;2023-06-22T05:28:08;7.77;;;5.40;;
56599;SDS011;51832;48.152;11.530;2023-06-22T05:33:11;7.35;;;4.15;;
56599;SDS011;51832;48.152;11.530;2023-06-22T05:38:11;7.65;;;5.30;;
56599;SDS011;51832;48.152;11.530;2023-06-22T05:43:12;8.70;;;5.10;;
56599;SDS011;51832;48.152;11.530;2023-06-22T05:48:12;9.05;;;5.60;;
56599;SDS011;51832;48.152;11.530;2023-06-22T05:53:13;10.48;;;5.45;;
56599;SDS011;51832;48.152;11.530;2023-06-22T05:58:13;17.88;;;5.90;;
56599;SDS011;51832;48.152;11.530;2023-06-22T06:03:13;10.95;;;5.38;;
56599;SDS011;51832;48.152;11.530;2023-06-22T06:08:17;9.98;;;6.18;;
56599;SDS011;51832;48.152;11.530;2023-06-22T06:13:17;12.07;;;6.50;;
56599;SDS011;51832;48.152;11.530;2023-06-22T06:18:17;8.83;;;6.33;;
56599;SDS011;51832;48.152;11.530;2023-06-22T06:23:18;10.63;;;5.82;;
56599;SDS011;51832;48.152;11.530;2023-06-22T06:28:18;11.67;;;6.07;;
56599;SDS011;51832;48.152;11.530;2023-06-22T06:33:19;12.37;;;6.67;;
56599;SDS011;51832;48.152;11.530;2023-06-22T06:38:21;11.60;;;6.85;;
56599;SDS011;51832;48.152;11.530;2023-06-22T06:43:21;10.65;;;5.65;;
56599;SDS011;51832;48.152;11.530;2023-06-22T06:48:22;11.85;;;6.70;;
56599;SDS011;51832;48.152;11.530;2023-06-22T06:53:23;12.47;;;7.00;;
56599;SDS011;51832;48.152;11.530;2023-06-22T06:58:23;16.67;;;7.35;;
56599;SDS011;51832;48.152;11.530;2023-06-22T07:03:24;11.77;;;6.07;;
56599;SDS011;51832;48.152;11.530;2023-06-22T07:08:24;10.60;;;6.90;;
56599;SDS011;51832;48.152;11.530;2023-06-22T07:13:24;12.87;;;7.07;;
56599;SDS011;51832;48.152;11.530;2023-06-22T07:18:25;13.27;;;6.30;;
56599;SDS011;51832;48.152;11.530;2023-06-22T07:23:26;13.48;;;6.85;;
56599;SDS011;51832;48.152;11.530;2023-06-22T07:28:26;10.03;;;7.40;;
56599;SDS011;51832;48.152;11.530;2023-06-22T07:33:27;9.68;;;6.25;;
56599;SDS011;51832;48.152;11.530;2023-06-22T07:38:28;10.93;;;7.30;;
56599;SDS011;51832;48.152;11.530;2023-06-22T07:43:28;11.83;;;7.07;;
56599;SDS011;51832;48.152;11.530;2023-06-22T07:48:30;14.67;;;7.17;;
56599;SDS011;51832;48.152;11.530;2023-06-22T07:53:30;11.75;;;6.93;;
56599;SDS011;51832;48.152;11.530;2023-06-22T07:58:31;11.48;;;7.05;;
56599;SDS011;51832;48.152;11.530;2023-06-22T08:03:31;12.70;;;6.80;;
56599;SDS011;51832;48.152;11.530;2023-06-22T08:08:32;13.82;;;7.22;;
56599;SDS011;51832;48.152;11.530;2023-06-22T08:13:32;14.23;;;7.50;;
56599;SDS011;51832;48.152;11.530;2023-06-22T08:18:33;14.85;;;7.20;;
56599;SDS011;51832;48.152;11.530;2023-06-22T08:23:33;11.73;;;6.83;;
56599;SDS011;51832;48.152;11.530;2023-06-22T08:28:34;10.55;;;6.95;;
56599;SDS011;51832;48.152;11.530;2023-06-22T08:33:35;14.77;;;7.20;;
56599;SDS011;51832;48.152;11.530;2023-06-22T08:38:35;14.33;;;7.77;;
56599;SDS011;51832;48.152;11.530;2023-06-22T08:43:36;14.70;;;7.57;;
56599;SDS011;51832;48.152;11.530;2023-06-22T08:48:36;12.10;;;7.22;;
56599;SDS011;51832;48.152;11.530;2023-06-22T08:53:36;11.45;;;7.18;;
56599;SDS011;51832;48.152;11.530;2023-06-22T08:58:37;10.63;;;6.60;;
56599;SDS011;51832;48.152;11.530;2023-06-22T09:03:37;9.33;;;6.87;;
56599;SDS011;51832;48.152;11.530;2023-06-22T09:08:38;10.07;;;6.50;;
56599;SDS011;51832;48.152;11.530;2023-06-22T09:13:38;14.87;;;7.20;;
56599;SDS011;51832;48.152;11.530;2023-06-22T09:18:39;14.55;;;7.03;;
56599;SDS011;51832;48.152;11.530;2023-06-22T09:23:39;14.60;;;7.17;;
56599;SDS011;51832;48.152;11.530;2023-06-22T09:28:39;15.93;;;7.63;;
56599;SDS011;51832;48.152;11.530;2023-06-22T09:33:40;16.67;;;7.57;;
56599;SDS011;51832;48.152;11.530;2023-06-22T09:38:40;8.18;;;5.78;;
56599;SDS011;51832;48.152;11.530;2023-06-22T09:43:41;13.02;;;7.05;;
56599;SDS011;51832;48.152;11.530;2023-06-22T09:48:41;16.60;;;7.57;;
56599;SDS011;51832;48.152;11.530;2023-06-22T09:53:42;12.23;;;7.10;;
56599;SDS011;51832;48.152;11.530;2023-06-22T09:58:43;11.23;;;7.23;;
56599;SDS011;51832;48.152;11.530;2023-06-22T10:03:44;13.55;;;6.90;;
56599;SDS011;51832;48.152;11.530;2023-06-22T10:08:45;13.40;;;7.13;;
56599;SDS011;51832;48.152;11.530;2023-06-22T10:13:45;10.55;;;6.88;;
56599;SDS011;51832;48.152;11.530;2023-06-22T10:18:45;16.03;;;7.43;;
56599;SDS011;51832;48.152;11.530;2023-06-22T10:23:46;12.05;;;7.35;;
56599;SDS011;51832;48.152;11.530;2023-06-22T10:28:46;11.10;;;7.43;;
56599;SDS011;51832;48.152;11.530;2023-06-22T10:33:47;14.70;;;6.82;;
56599;SDS011;51832;48.152;11.530;2023-06-22T10:38:49;14.57;;;7.72;;
56599;SDS011;51832;48.152;11.530;2023-06-22T10:43:50;14.15;;;7.30;;
56599;SDS011;51832;48.152;11.530;2023-06-22T10:48:50;14.93;;;7.10;;
56599;SDS011;51832;48.152;11.530;2023-06-22T10:53:51;12.57;;;7.47;;
56599;SDS011;51832;48.152;11.530;2023-06-22T10:58:51;11.05;;;7.03;;
56599;SDS011;51832;48.152;11.530;2023-06-22T11:03:51;12.27;;;7.00;;
56599;SDS011;51832;48.152;11.530;2023-06-22T11:08:52;14.77;;;7.40;;
56599;SDS011;51832;48.152;11.530;2023-06-22T11:13:52;14.43;;;6.95;;
56599;SDS011;51832;48.152;11.530;2023-06-22T11:18:53;14.52;;;6.82;;
56599;SDS011;51832;48.152;11.530;2023-06-22T11:23:53;15.18;;;7.40;;
56599;SDS011;51832;48.152;11.530;2023-06-22T11:28:54;16.97;;;7.60;;
56599;SDS011;51832;48.152;11.530;2023-06-22T11:33:54;15.20;;;7.23;;
56599;SDS011;51832;48.152;11.530;2023-06-22T11:38:55;11.43;;;6.60;;
56599;SDS011;51832;48.152;11.530;2023-06-22T11:43:55;12.47;;;6.80;;
56599;SDS011;51832;48.152;11.530;2023-06-22T11:48:55;13.43;;;6.97;;
56599;SDS011;51832;48.152;11.530;2023-06-22T11:53:56;10.43;;;6.80;;
56599;SDS011;51832;48.152;11.530;2023-06-22T11:58:56;13.90;;;7.30;;
56599;SDS011;51832;48.152;11.530;2023-06-22T12:03:57;11.83;;;7.43;;
56599;SDS011;51832;48.152;11.530;2023-06-22T12:08:57;14.13;;;7.53;;
56599;SDS011;51832;48.152;11.530;2023-06-22T12:13:58;16.73;;;7.20;;
56599;SDS011;51832;48.152;11.530;2023-06-22T12:19:01;12.13;;;7.45;;
56599;SDS011;51832;48.152;11.530;2023-06-22T12:24:02;16.10;;;7.60;;
56599;SDS011;51832;48.152;11.530;2023-06-22T12:29:02;14.53;;;7.40;;
56599;SDS011;51832;48.152;11.530;2023-06-22T12:34:03;13.37;;;7.20;;
56599;SDS011;51832;48.152;11.530;2023-06-22T12:39:03;15.70;;;7.13;;
56599;SDS011;51832;48.152;11.530;2023-06-22T12:44:04;13.87;;;7.33;;
56599;SDS011;51832;48.152;11.530;2023-06-22T12:49:04;18.73;;;7.10;;
56599;SDS011;51832;48.152;11.530;2023-06-22T12:54:05;13.33;;;7.57;;
56599;SDS011;51832;48.152;11.530;2023-06-22T12:59:05;13.10;;;7.67;;
56599;SDS011;51832;48.152;11.530;2023-06-22T13:04:06;11.33;;;6.80;;
56599;SDS011;51832;48.152;11.530;2023-06-22T13:09:06;11.33;;;6.93;;
56599;SDS011;51832;48.152;11.530;2023-06-22T13:14:07;17.83;;;7.40;;
56599;SDS011;51832;48.152;11.530;2023-06-22T13:19:07;11.33;;;6.63;;
56599;SDS011;51832;48.152;11.530;2023-06-22T13:24:08;9.70;;;6.43;;
56599;SDS011;51832;48.152;11.530;2023-06-22T13:29:08;11.97;;;6.80;;
56599;SDS011;51832;48.152;11.530;2023-06-22T13:34:09;11.93;;;6.80;;
56599;SDS011;51832;48.152;11.530;2023-06-22T13:39:09;12.23;;;6.63;;
56599;SDS011;51832;48.152;11.530;2023-06-22T13:44:09;14.53;;;6.43;;
56599;SDS011;51832;48.152;11.530;2023-06-22T13:49:10;14.07;;;6.80;;
56599;SDS011;51832;48.152;11.530;2023-06-22T13:54:10;14.57;;;7.17;;
56599;SDS011;51832;48.152;11.530;2023-06-22T13:59:11;11.30;;;6.50;;
56599;SDS011;51832;48.152;11.530;2023-06-22T14:04:11;11.53;;;6.40;;
56599;SDS011;51832;48.152;11.530;2023-06-22T14:09:11;11.63;;;6.90;;
56599;SDS011;51832;48.152;11.530;2023-06-22T14:14:12;11.63;;;6.53;;
56599;SDS011;51832;48.152;11.530;2023-06-22T14:19:12;13.77;;;6.50;;
56599;SDS011;51832;48.152;11.530;2023-06-22T14:24:13;12.80;;;6.37;;
56599;SDS011;51832;48.152;11.530;2023-06-22T14:29:13;9.67;;;6.37;;
56599;SDS011;51832;48.152;11.530;2023-06-22T14:34:14;14.67;;;7.17;;
56599;SDS011;51832;48.152;11.530;2023-06-22T14:39:15;12.27;;;6.57;;
56599;SDS011;51832;48.152;11.530;2023-06-22T14:49:16;10.65;;;5.57;;
56599;SDS011;51832;48.152;11.530;2023-06-22T14:59:16;9.57;;;5.70;;
56599;SDS011;51832;48.152;11.530;2023-06-22T15:09:17;10.33;;;6.00;;
56599;SDS011;51832;48.152;11.530;2023-06-22T15:19:18;14.07;;;6.07;;
56599;SDS011;51832;48.152;11.530;2023-06-22T15:24:18;11.40;;;5.80;;
56599;SDS011;51832;48.152;11.530;2023-06-22T15:34:19;9.93;;;5.30;;
56599;SDS011;51832;48.152;11.530;2023-06-22T15:44:20;9.32;;;5.07;;
56599;SDS011;51832;48.152;11.530;2023-06-22T15:49:21;13.82;;;5.57;;
56599;SDS011;51832;48.152;11.530;2023-06-22T15:54:22;13.20;;;5.93;;
56599;SDS011;51832;48.152;11.530;2023-06-22T15:59:22;16.07;;;6.10;;
56599;SDS011;51832;48.152;11.530;2023-06-22T16:04:23;13.85;;;5.68;;
56599;SDS011;51832;48.152;11.530;2023-06-22T16:09:24;12.57;;;5.63;;
56599;SDS011;51832;48.152;11.530;2023-06-22T16:14:24;11.65;;;5.53;;
56599;SDS011;51832;48.152;11.530;2023-06-22T16:19:25;13.17;;;5.97;;
56599;SDS011;51832;48.152;11.530;2023-06-22T16:24:25;12.80;;;5.07;;
56599;SDS011;51832;48.152;11.530;2023-06-22T16:29:26;10.93;;;5.50;;
56599;SDS011;51832;48.152;11.530;2023-06-22T16:34:26;12.57;;;6.10;;
56599;SDS011;51832;48.152;11.530;2023-06-22T16:39:27;11.97;;;6.57;;
56599;SDS011;51832;48.152;11.530;2023-06-22T16:44:27;12.60;;;5.73;;
56599;SDS011;51832;48.152;11.530;2023-06-22T16:49:27;13.73;;;6.00;;
56599;SDS011;51832;48.152;11.530;2023-06-22T16:54:31;14.67;;;5.77;;
56599;SDS011;51832;48.152;11.530;2023-06-22T16:59:31;16.63;;;6.43;;
56599;SDS011;51832;48.152;11.530;2023-06-22T17:04:32;14.33;;;5.83;;
56599;SDS011;51832;48.152;11.530;2023-06-22T17:09:33;13.13;;;5.45;;
56599;SDS011;51832;48.152;11.530;2023-06-22T17:14:38;19.65;;;7.43;;
56599;SDS011;51832;48.152;11.530;2023-06-22T17:19:39;19.40;;;7.28;;
56599;SDS011;51832;48.152;11.530;2023-06-22T17:24:40;22.57;;;8.13;;
56599;SDS011;51832;48.152;11.530;2023-06-22T17:29:40;15.40;;;5.70;;
56599;SDS011;51832;48.152;11.530;2023-06-22T17:34:41;12.65;;;4.28;;
56599;SDS011;51832;48.152;11.530;2023-06-22T17:39:41;11.13;;;3.60;;
56599;SDS011;51832;48.152;11.530;2023-06-22T17:44:51;11.45;;;3.22;;
56599;SDS011;51832;48.152;11.530;2023-06-22T17:50:03;13.35;;;2.95;;
56599;SDS011;51832;48.152;11.530;2023-06-22T17:55:07;11.55;;;2.80;;
56599;SDS011;51832;48.152;11.530;2023-06-22T18:00:08;10.57;;;2.70;;
56599;SDS011;51832;48.152;11.530;2023-06-22T18:05:10;9.55;;;2.97;;
56599;SDS011;51832;48.152;11.530;2023-06-22T18:10:12;13.07;;;3.00;;
56599;SDS011;51832;48.152;11.530;2023-06-22T18:15:13;13.85;;;3.70;;
56599;SDS011;51832;48.152;11.530;2023-06-22T18:20:14;9.35;;;3.00;;
56599;SDS011;51832;48.152;11.530;2023-06-22T18:25:14;9.20;;;2.88;;
56599;SDS011;51832;48.152;11.530;2023-06-22T18:30:16;11.03;;;3.43;;
56599;SDS011;51832;48.152;11.530;2023-06-22T18:35:18;8.90;;;3.20;;
56599;SDS011;51832;48.152;11.530;2023-06-22T18:40:18;10.23;;;3.45;;
56599;SDS011;51832;48.152;11.530;2023-06-22T18:45:23;14.75;;;3.92;;
56599;SDS011;51832;48.152;11.530;2023-06-22T18:50:43;12.00;;;3.90;;
56599;SDS011;51832;48.152;11.530;2023-06-22T18:55:49;11.32;;;4.50;;
56599;SDS011;51832;48.152;11.530;2023-06-22T19:00:50;12.73;;;4.72;;
56599;SDS011;51832;48.152;11.530;2023-06-22T19:05:52;11.93;;;4.78;;
56599;SDS011;51832;48.152;11.530;2023-06-22T19:10:53;13.77;;;4.03;;
56599;SDS011;51832;48.152;11.530;2023-06-22T19:21:01;14.40;;;3.80;;
56599;SDS011;51832;48.152;11.530;2023-06-22T19:26:12;14.63;;;5.07;;
56599;SDS011;51832;48.152;11.530;2023-06-22T19:31:20;10.68;;;4.10;;
56599;SDS011;51832;48.152;11.530;2023-06-22T19:36:22;13.95;;;4.90;;
56599;SDS011;51832;48.152;11.530;2023-06-22T19:41:22;10.70;;;4.10;;
56599;SDS011;51832;48.152;11.530;2023-06-22T19:46:30;14.32;;;5.70;;
56599;SDS011;51832;48.152;11.530;2023-06-22T19:51:31;12.80;;;5.55;;
56599;SDS011;51832;48.152;11.530;2023-06-22T19:56:35;11.18;;;4.72;;
56599;SDS011;51832;48.152;11.530;2023-06-22T20:01:38;10.30;;;4.47;;
56599;SDS011;51832;48.152;11.530;2023-06-22T20:11:40;8.85;;;4.03;;
56599;SDS011;51832;48.152;11.530;2023-06-22T20:16:47;10.65;;;4.05;;
56599;SDS011;51832;48.152;11.530;2023-06-22T20:21:53;8.30;;;4.38;;
56599;SDS011;51832;48.152;11.530;2023-06-22T20:26:54;9.13;;;4.90;;
56599;SDS011;51832;48.152;11.530;2023-06-22T20:32:15;9.93;;;4.70;;
56599;SDS011;51832;48.152;11.530;2023-06-22T20:37:15;9.93;;;5.60;;
56599;SDS011;51832;48.152;11.530;2023-06-22T20:42:21;11.15;;;5.50;;
56599;SDS011;51832;48.152;11.530;2023-06-22T20:47:21;10.57;;;5.63;;
56599;SDS011;51832;48.152;11.530;2023-06-22T20:52:22;13.63;;;5.97;;
56599;SDS011;51832;48.152;11.530;2023-06-22T20:57:23;12.88;;;6.53;;
56599;SDS011;51832;48.152;11.530;2023-06-22T21:02:23;11.53;;;5.87;;
56599;SDS011;51832;48.152;11.530;2023-06-22T21:07:24;12.93;;;5.43;;
56599;SDS011;51832;48.152;11.530;2023-06-22T21:12:24;11.85;;;5.13;;
56599;SDS011;51832;48.152;11.530;2023-06-22T21:17:25;12.55;;;4.80;;
56599;SDS011;51832;48.152;11.530;2023-06-22T21:22:25;12.43;;;4.68;;
56599;SDS011;51832;48.152;11.530;2023-06-22T21:27:26;11.75;;;4.97;;
56599;SDS011;51832;48.152;11.530;2023-06-22T21:32:27;11.68;;;5.10;;
56599;SDS011;51832;48.152;11.530;2023-06-22T21:37:28;10.90;;;4.80;;
56599;SDS011;51832;48.152;11.530;2023-06-22T21:42:29;11.45;;;4.90;;
56599;SDS011;51832;48.152;11.530;2023-06-22T21:47:29;14.80;;;5.32;;
56599;SDS011;51832;48.152;11.530;2023-06-22T21:52:29;11.33;;;5.47;;
56599;SDS011;51832;48.152;11.530;2023-06-22T21:57:30;11.75;;;5.45;;
56599;SDS011;51832;48.152;11.530;2023-06-22T22:02:30;7.72;;;4.93;;
56599;SDS011;51832;48.152;11.530;2023-06-22T22:07:31;11.75;;;5.00;;
56599;SDS011;51832;48.152;11.530;2023-06-22T22:12:31;8.77;;;5.20;;
56599;SDS011;51832;48.152;11.530;2023-06-22T22:17:32;8.17;;;4.63;;
56599;SDS011;51832;48.152;11.530;2023-06-22T22:22:33;9.90;;;5.05;;
56599;SDS011;51832;48.152;11.530;2023-06-22T22:27:33;11.50;;;5.07;;
56599;SDS011;51832;48.152;11.530;2023-06-22T22:32:34;11.25;;;5.28;;
56599;SDS011;51832;48.152;11.530;2023-06-22T22:37:34;6.60;;;3.37;;
56599;SDS011;51832;48.152;11.530;2023-06-22T22:42:34;9.73;;;3.70;;
56599;SDS011;51832;48.152;11.530;2023-06-22T22:47:35;10.27;;;3.72;;
56599;SDS011;51832;48.152;11.530;2023-06-22T22:52:36;8.05;;;3.50;;
56599;SDS011;51832;48.152;11.530;2023-06-22T22:57:38;6.35;;;3.30;;
56599;SDS011;51832;48.152;11.530;2023-06-22T23:02:39;5.75;;;3.33;;
56599;SDS011;51832;48.152;11.530;2023-06-22T23:07:40;6.25;;;3.05;;
56599;SDS011;51832;48.152;11.530;2023-06-22T23:12:42;8.18;;;3.50;;
56599;SDS011;51832;48.152;11.530;2023-06-22T23:17:42;6.20;;;2.88;;
56599;SDS011;51832;48.152;11.530;2023-06-22T23:22:43;4.53;;;2.67;;
56599;SDS011;51832;48.152;11.530;2023-06-22T23:27:43;6.50;;;2.88;;
56599;SDS011;51832;48.152;11.530;2023-06-22T23:32:44;4.03;;;2.50;;
56599;SDS011;51832;48.152;11.530;2023-06-22T23:37:45;4.72;;;2.53;;
56599;SDS011;51832;48.152;11.530;2023-06-22T23:42:48;5.90;;;2.47;;
56599;SDS011;51832;48.152;11.530;2023-06-22T23:47:49;3.53;;;2.25;;
56599;SDS011;51832;48.152;11.530;2023-06-22T23:52:49;4.78;;;1.88;;
56599;SDS011;51832;48.152;11.530;2023-06-22T23:57:50;5.13;;;2.20;;
